• Join FlightAware (Why Join?)
  • Login
  • US Flag 
07:58AM EDT


 

Airport Tracker/Info


-or-


 

Live Flight TrackerFlight Track Log ✈ N662US ✈ 18-Jul-2013 ✈ KJFK - RJAA / NRT

Flight Track Log - Related Links

Times and Time Zones

All times are in EDT time to prevent confusion due to time zone crossing. See the N662US flight status page for this flight to view local times or setup timezone preferences in your user account.

Time Position Orientation Groundspeed Altitude Reporting Facility
EDT Latitude Longitude Course Direction KTS MPH feet Rate Location/Type
02:17PM 40.6400 -73.7830 North 2 2  Level FlightAware
02:19PM 40.6400 -73.7840 270° West 2 2  Level FlightAware
02:21PM 40.8463 -73.9315 339° North  Level FlightAware Approximate
02:22PM 40.9556 -74.0111 339° North  Level FlightAware Approximate
02:23PM 41.0651 -74.0902 327° Northwest  Level FlightAware Approximate
02:24PM 41.1738 -74.1714 333° Northwest  Level FlightAware Approximate
02:25PM 41.2786 -74.2620 323° Northwest  Level FlightAware Approximate
02:26PM 41.3839 -74.3500 North  Level FlightAware Approximate
02:27PM 41.4524 -74.4777 300° West  Level FlightAware Approximate
02:28PM 41.5180 -74.6202 297° West  Level FlightAware Approximate
02:29PM 41.5801 -74.7634 323° Northwest  Level FlightAware Approximate
02:30PM 40.6350 -73.7830 180° South 16 18  Level FlightAware
02:31PM 40.6340 -73.7810 123° Southeast 23 26  Level FlightAware
02:31PM 40.6330 -73.7790 123° Southeast 23 26  Level FlightAware
02:32PM 40.6330 -73.7770 90° East 16 18  Level FlightAware
02:34PM 40.6320 -73.7750 123° Southeast 9 10  Level FlightAware
02:35PM 40.6310 -73.7740 143° Southeast 13 15  Level FlightAware
02:35PM 40.6310 -73.7730 90° East 2 2  Level FlightAware
02:38PM 40.8915 -73.9721 333° Northwest  Level FlightAware Approximate
02:39PM 41.0062 -74.0387 327° Northwest  Level FlightAware Approximate
02:40PM 41.1109 -74.1303 327° Northwest  Level FlightAware Approximate
02:40PM 40.6300 -73.7720 327° Northwest 2 2  Level FlightAware
02:42PM 40.8348 -73.9257 339° North  Level FlightAware Approximate
02:43PM 40.9440 -74.0053 339° North  Level FlightAware Approximate
02:44PM 41.0547 -74.0812 327° Northwest  Level FlightAware Approximate
02:44PM 40.6300 -73.7710 327° Northwest 2 2  Level FlightAware
02:45PM 40.6290 -73.7710 180° South 9 10 60 Level FlightAware
02:48PM 40.8637 -73.9470 323° Northwest  Level FlightAware Approximate
02:49PM 40.9753 -74.0210 339° North  Level FlightAware Approximate
02:49PM 40.6280 -73.7720 339° North 20 23  Level FlightAware
02:50PM 40.6320 -73.7810 300° West 105 121 420 Level FlightAware
02:50PM 40.6380 -73.7920 306° West 155 178 780 Level FlightAware
02:51PM 40.6530 -73.8260 300° West 189 217 700 1,380 Climbing FlightAware
02:51PM 40.6570 -73.8390 292° West 190 219 1,000 1,200 Climbing FlightAware
02:51PM 40.6480 -73.8680 248° West 198 228 1,500 1,020 Climbing FlightAware
02:51PM 40.6380 -73.8770 214° Southwest 212 244 1,700 960 Climbing FlightAware
02:52PM 40.6210 -73.8880 206° Southwest 231 266 2,000 1,080 Climbing FlightAware
02:52PM 40.6000 -73.8950 194° South 252 290 2,400 840 Climbing FlightAware
02:52PM 40.5770 -73.8870 165° South 272 313 2,600 1,080 Climbing FlightAware
02:53PM 40.5590 -73.8460 120° Southeast 281 323 3,300 1,380 Climbing FlightAware
02:53PM 40.5620 -73.8060 84° East 290 334 3,800 1,320 Climbing FlightAware
02:54PM 40.5720 -73.7820 61° Northeast 297 342 4,200 1,980 Climbing FlightAware
02:54PM 40.5950 -73.7440 51° Northeast 301 346 5,200 2,280 Climbing FlightAware
02:54PM 40.6240 -73.7020 48° Northeast 306 352 6,300 2,160 Climbing FlightAware
02:55PM 40.6500 -73.6620 49° Northeast 316 364 7,300 2,160 Climbing FlightAware
02:55PM 40.6800 -73.6180 48° Northeast 323 372 8,400 2,160 Climbing FlightAware
02:56PM 40.6936 -73.5974 49° Northeast 325 374 8,900 1,620 Climbing FlightAware ADS-B
02:57PM 40.7690 -73.5000 44° Northeast 351 404 10,700 1,440 Climbing FlightAware
02:57PM 40.7950 -73.4920 13° North 358 412 11,000 1,020 Climbing FlightAware
02:58PM 40.8390 -73.4980 354° North 372 428 11,500 1,020 Climbing FlightAware
02:58PM 40.9110 -73.5280 343° North 403 464 12,200 1,200 Climbing FlightAware
02:59PM 40.9490 -73.5740 318° Northwest 414 476 12,900 1,680 Climbing FlightAware
02:59PM 40.9990 -73.6580 308° West 419 482 14,200 1,920 Climbing FlightAware
03:00PM 41.0578 -73.7560 309° West 425 489 15,800 1,860 Climbing FlightAware ADS-B
03:01PM 41.0977 -73.8262 307° West 426 490 16,800 960 Climbing FlightAware ADS-B
03:01PM 41.1363 -73.8929 308° West 427 491 16,900 60 Climbing FlightAware ADS-B
03:02PM 41.1630 -73.9484 303° West 427 491 16,900  Level FlightAware ADS-B
03:02PM 41.1851 -74.0063 297° West 424 488 16,900  Level FlightAware ADS-B
03:03PM 41.2191 -74.0708 305° West 427 491 16,900  Level FlightAware ADS-B
03:03PM 41.2536 -74.1352 305° West 426 490 16,900  Level FlightAware ADS-B
03:04PM 41.2908 -74.2059 305° West 427 491 16,900 720 Level FlightAware ADS-B
03:04PM 41.3273 -74.2753 305° West 432 497 17,700 1,500 Climbing FlightAware ADS-B
03:05PM 41.3618 -74.3414 305° West 435 501 18,500 1,680 Climbing FlightAware ADS-B
03:05PM 41.4086 -74.4326 304° West 441 507 19,700 2,280 Climbing FlightAware ADS-B
03:06PM 41.4509 -74.5125 305° West 421 484 21,500 2,160 Climbing FlightAware ADS-B
03:07PM 41.4873 -74.5834 304° West 424 488 22,300 1,260 Climbing FlightAware ADS-B
03:07PM 41.5241 -74.6548 305° West 429 494 22,900 1,140 Climbing FlightAware ADS-B
03:08PM 41.5587 -74.7229 304° West 434 499 23,500 1,200 Climbing FlightAware ADS-B
03:08PM 41.5759 -74.7529 307° West 437 503 23,800 660 Climbing FlightAware ADS-B
03:08PM 41.6348 -74.8142 322° Northwest 450 518 24,100 480 Climbing FlightAware ADS-B
03:09PM 41.7203 -74.8714 333° Northwest 472 543 24,500 540 Climbing FlightAware ADS-B
03:10PM 41.7817 -74.9116 334° Northwest 474 545 24,800 480 Climbing FlightAware ADS-B
03:10PM 41.8643 -74.9623 335° Northwest 474 545 25,100 600 Climbing FlightAware ADS-B
03:11PM 41.9417 -74.9977 341° North 474 545 25,600 960 Climbing FlightAware ADS-B
03:13PM 42.2210 -75.1170 342° North 510 587 27,800 1,020 Climbing FlightAware
03:14PM 42.3180 -75.1500 346° North 509 586 28,600 1,020 Climbing FlightAware
03:14PM 42.4090 -75.1820 345° North 507 583 29,300 960 Climbing FlightAware
03:15PM 42.5150 -75.2190 346° North 505 581 30,000 480 Climbing FlightAware
03:16PM 42.6030 -75.2500 345° North 503 579 30,000  Level FlightAware
03:16PM 42.6810 -75.2870 341° North 499 574 30,000  Level FlightAware
03:17PM 42.7650 -75.3310 339° North 495 570 30,000  Level FlightAware
03:18PM 42.8580 -75.3860 337° Northwest 492 566 30,000  Level FlightAware
03:18PM 42.9390 -75.4560 328° Northwest 489 563 30,000  Level FlightAware
03:19PM 43.0070 -75.5520 314° West 482 555 30,000  Level FlightAware
03:20PM 43.0690 -75.6400 314° West 480 552 30,000  Level FlightAware
03:21PM 43.1340 -75.7390 312° West 478 550 30,000  Level FlightAware
03:21PM 43.1910 -75.8310 310° West 475 547 30,000  Level FlightAware
03:22PM 43.2540 -75.9310 311° West 473 544 30,000  Level FlightAware
03:23PM 43.3110 -76.0230 310° West 475 547 30,000  Level FlightAware
03:23PM 43.3750 -76.1230 311° West 475 547 30,000  Level FlightAware
03:24PM 43.4290 -76.2100 311° West 476 548 30,000  Level FlightAware
03:25PM 43.4890 -76.3080 310° West 480 552 30,000  Level FlightAware
03:26PM 43.6340 -76.5420 311° West 483 556 30,000  Level FlightAware
03:27PM 43.7010 -76.6500 311° West 483 556 30,000  Level FlightAware
03:28PM 43.7620 -76.7520 310° West 483 556 30,000  Level FlightAware
03:28PM 43.8040 -76.8200 311° West 483 556 30,000  Level FlightAware
03:29PM 43.8600 -76.9090 311° West 487 560 30,000  Level FlightAware
03:30PM 43.9610 -77.0200 322° Northwest 497 572 30,000  Level FlightAware
03:31PM 44.0330 -77.0880 326° Northwest 495 570 30,000  Level FlightAware
03:31PM 44.1140 -77.1650 326° Northwest 493 567 30,000  Level FlightAware
03:32PM 44.1910 -77.2370 326° Northwest 488 562 30,000  Level FlightAware
03:33PM 44.2680 -77.3100 326° Northwest 484 557 30,000  Level FlightAware
03:33PM 44.3440 -77.3830 326° Northwest 480 552 30,000  Level FlightAware
03:34PM 44.4260 -77.4620 325° Northwest 478 550 30,000  Level FlightAware
03:35PM 44.5060 -77.5370 326° Northwest 477 549 30,000  Level FlightAware
03:35PM 44.5740 -77.5980 327° Northwest 478 550 30,000  Level FlightAware
03:36PM 44.6640 -77.6580 335° Northwest 476 548 30,000  Level FlightAware
03:37PM 44.7530 -77.7190 334° Northwest 474 545 30,000  Level FlightAware
03:37PM 44.8030 -77.7530 334° Northwest 475 547 30,000  Level FlightAware
03:38PM 44.8840 -77.8080 334° Northwest 475 547 30,000  Level FlightAware
03:39PM 44.9640 -77.8630 334° Northwest 475 547 30,000  Level FlightAware
03:39PM 45.0420 -77.9230 331° Northwest 475 547 30,000  Level FlightAware
03:40PM 45.1090 -77.9770 330° Northwest 476 548 30,000 360 Level FlightAware
03:41PM 45.1930 -78.0460 330° Northwest 480 552 30,500 720 Climbing FlightAware
03:42PM 45.2750 -78.1230 327° Northwest 480 552 31,100 780 Climbing FlightAware
03:42PM 45.3410 -78.1890 325° Northwest 480 552 31,600 600 Climbing FlightAware
03:43PM 45.4320 -78.2750 326° Northwest 477 549 32,000 240 Climbing FlightAware
03:44PM 45.5070 -78.3460 326° Northwest 474 545 32,000  Level FlightAware
03:44PM 45.5750 -78.4120 326° Northwest 471 542 32,000  Level FlightAware
03:46PM 45.7770 -78.6050 326° Northwest 465 535 32,000  Level FlightAware
03:47PM 45.8700 -78.6950 326° Northwest 464 534 32,000  Level FlightAware
03:48PM 45.9570 -78.7520 336° Northwest 473 544 32,000  Level FlightAware
03:48PM 46.0480 -78.7960 341° North 471 542 32,000  Level FlightAware
03:49PM 46.1320 -78.8480 337° Northwest 464 534 32,000  Level FlightAware
03:50PM 46.1930 -78.9160 322° Northwest 462 532 32,000  Level FlightAware
03:50PM 46.2640 -78.9880 325° Northwest 464 534 32,000  Level FlightAware
03:51PM 46.3350 -79.0580 326° Northwest 466 536 32,000  Level FlightAware
03:52PM 46.4080 -79.1280 327° Northwest 467 537 32,000  Level FlightAware
03:52PM 46.4870 -79.2030 327° Northwest 469 540 32,000  Level FlightAware
03:53PM 46.5650 -79.2830 325° Northwest 468 539 32,000  Level FlightAware
03:54PM 46.6380 -79.3610 324° Northwest 470 541 32,000  Level FlightAware
03:55PM 46.7050 -79.4310 324° Northwest 470 541 32,000  Level FlightAware
03:55PM 46.7720 -79.5000 325° Northwest 467 537 32,000  Level FlightAware
03:56PM 46.8430 -79.5750 324° Northwest 465 535 32,000  Level FlightAware
03:57PM 46.9190 -79.6540 325° Northwest 462 532 32,000  Level FlightAware
03:57PM 46.9970 -79.7360 324° Northwest 461 531 32,000  Level FlightAware
03:58PM 47.0650 -79.8070 325° Northwest 461 531 32,000  Level FlightAware
03:59PM 47.1350 -79.8820 324° Northwest 461 531 32,000  Level FlightAware
03:59PM 47.2090 -79.9610 324° Northwest 461 531 32,000  Level FlightAware
04:00PM 47.2860 -80.0430 324° Northwest 461 531 32,000  Level FlightAware
04:01PM 47.3550 -80.1170 324° Northwest 461 531 32,000  Level FlightAware
04:01PM 47.4310 -80.1980 324° Northwest 460 529 32,000  Level FlightAware
04:02PM 47.5030 -80.2760 324° Northwest 461 531 32,000  Level FlightAware
04:03PM 47.5650 -80.3430 324° Northwest 462 532 32,000  Level FlightAware
04:04PM 47.6410 -80.4260 324° Northwest 462 532 32,000  Level FlightAware
04:04PM 47.7140 -80.5070 323° Northwest 463 533 32,000  Level FlightAware
04:05PM 47.7720 -80.5720 323° Northwest 463 533 32,000  Level FlightAware
04:06PM 47.8770 -80.6890 323° Northwest 463 533 32,000  Level FlightAware
04:07PM 47.9470 -80.7680 323° Northwest 463 533 32,000  Level FlightAware
04:08PM 48.0530 -80.8870 323° Northwest 463 533 32,000  Level FlightAware
04:09PM 48.0890 -80.9280 323° Northwest 463 533 32,000  Level FlightAware
04:10PM 48.1780 -81.0280 323° Northwest 463 533 32,000  Level FlightAware
04:10PM 48.2320 -81.0890 323° Northwest 463 533 32,000  Level FlightAware
04:11PM 48.2910 -81.1570 323° Northwest 463 533 32,000  Level FlightAware
04:11PM 48.3410 -81.2130 323° Northwest 463 533 32,000  Level FlightAware
04:12PM 48.3950 -81.2740 323° Northwest 463 533 32,000  Level FlightAware
04:13PM 48.4850 -81.3760 323° Northwest 463 533 32,000  Level FlightAware
04:14PM 48.5370 -81.4360 323° Northwest 463 533 32,000  Level FlightAware
04:15PM 48.7667 -81.6833 323° Northwest 460 529 32,000  Level Toronto Center
04:16PM 48.8667 -81.8000 323° Northwest 460 529 32,000  Level Toronto Center
04:17PM 48.9667 -81.9167 323° Northwest 460 529 32,000  Level Toronto Center
04:18PM 49.0667 -82.0500 319° Northwest 460 529 32,000  Level Toronto Center
04:19PM 49.1667 -82.1500 327° Northwest 460 529 32,000  Level Toronto Center
04:20PM 49.2667 -82.2833 319° Northwest 460 529 32,000  Level Toronto Center
04:21PM 49.3667 -82.3833 327° Northwest 460 529 32,000  Level Toronto Center
04:22PM 49.4833 -82.5333 320° Northwest 460 529 32,000  Level Toronto Center
04:23PM 49.5833 -82.6167 332° Northwest 460 529 32,000  Level Toronto Center
04:24PM 49.6667 -82.7167 322° Northwest 460 529 32,000  Level Toronto Center
04:25PM 49.7833 -82.8333 327° Northwest 460 529 32,000  Level Toronto Center
04:26PM 49.9000 -82.9167 335° Northwest 460 529 32,000  Level Toronto Center
04:27PM 50.0167 -83.0167 331° Northwest 460 529 32,000  Level Toronto Center
04:28PM 50.1167 -83.1333 323° Northwest 460 529 32,000  Level Toronto Center
04:29PM 50.2333 -83.2500 327° Northwest 460 529 32,000  Level Toronto Center
04:29PM 50.2667 -83.2333 18° North 460 529 32,000  Level Edmonton Center
04:30PM 50.3667 -83.3500 323° Northwest 460 529 32,000  Level Edmonton Center
04:31PM 50.4833 -83.4667 328° Northwest 470 541 32,000  Level Edmonton Center
04:32PM 50.5833 -83.5667 328° Northwest 470 541 32,000  Level Edmonton Center
04:33PM 50.7000 -83.6833 328° Northwest 470 541 32,000  Level Edmonton Center
04:34PM 50.8167 -83.7833 332° Northwest 460 529 32,000  Level Edmonton Center
04:35PM 50.9000 -83.8833 323° Northwest 460 529 32,000  Level Edmonton Center
04:36PM 51.0333 -84.0167 328° Northwest 460 529 32,000  Level Edmonton Center
04:37PM 51.1167 -84.1167 323° Northwest 460 529 32,000  Level Edmonton Center
04:38PM 51.2333 -84.2167 332° Northwest 460 529 32,000  Level Edmonton Center
04:39PM 51.3333 -84.3333 324° Northwest 460 529 32,000  Level Edmonton Center
04:40PM 51.4500 -84.4500 328° Northwest 450 518 32,000  Level Edmonton Center
04:41PM 51.5500 -84.5667 324° Northwest 460 529 32,000  Level Edmonton Center
04:42PM 51.6667 -84.6833 328° Northwest 460 529 32,000  Level Edmonton Center
04:43PM 51.7500 -84.8000 319° Northwest 460 529 32,000  Level Edmonton Center
04:44PM 51.8667 -84.9000 332° Northwest 460 529 32,000  Level Edmonton Center
04:45PM 51.9667 -85.0167 324° Northwest 460 529 32,000  Level Edmonton Center
04:46PM 52.0833 -85.1333 328° Northwest 460 529 32,000  Level Edmonton Center
04:47PM 52.1833 -85.2500 324° Northwest 460 529 32,000  Level Edmonton Center
04:48PM 52.3000 -85.3667 329° Northwest 460 529 32,000  Level Edmonton Center
04:49PM 52.4000 -85.4833 325° Northwest 460 529 32,000  Level Edmonton Center
04:50PM 52.5167 -85.6000 329° Northwest 450 518 32,000  Level Edmonton Center
04:51PM 52.6167 -85.7000 329° Northwest 450 518 32,000  Level Edmonton Center
04:52PM 52.7167 -85.8333 321° Northwest 450 518 32,100 540 Climbing Edmonton Center
04:53PM 52.8167 -85.9500 325° Northwest 450 518 33,100 840 Climbing Edmonton Center
04:54PM 52.9167 -86.0500 329° Northwest 450 518 33,800 420 Climbing Edmonton Center
04:55PM 53.0333 -86.1667 329° Northwest 450 518 34,000 60 Climbing Edmonton Center
04:56PM 53.1167 -86.3000 316° Northwest 450 518 34,000  Level Edmonton Center
04:57PM 53.2333 -86.4167 329° Northwest 440 506 34,000  Level Edmonton Center
04:58PM 53.3333 -86.5167 329° Northwest 440 506 34,000  Level Edmonton Center
04:59PM 53.4333 -86.6500 322° Northwest 440 506 34,000  Level Edmonton Center
05:00PM 53.5333 -86.7833 322° Northwest 440 506 34,000  Level Edmonton Center
05:01PM 53.6333 -86.8833 329° Northwest 440 506 34,000  Level Edmonton Center
05:02PM 53.7500 -87.0000 329° Northwest 430 495 34,000  Level Edmonton Center
05:03PM 53.8333 -87.1167 320° Northwest 430 495 34,000  Level Edmonton Center
05:04PM 53.9333 -87.2333 326° Northwest 430 495 34,000  Level Edmonton Center
05:05PM 54.0167 -87.3500 321° Northwest 430 495 34,000  Level Edmonton Center
05:06PM 54.1333 -87.4833 326° Northwest 420 483 34,000  Level Edmonton Center
05:07PM 54.2167 -87.5833 325° Northwest 430 495 34,000  Level Edmonton Center
05:08PM 54.3167 -87.7167 322° Northwest 420 483 34,000  Level Edmonton Center
05:09PM 54.4167 -87.8333 326° Northwest 430 495 34,000  Level Edmonton Center
05:10PM 54.5167 -87.9667 322° Northwest 430 495 34,000  Level Edmonton Center
05:11PM 54.6000 -88.0667 325° Northwest 420 483 34,000  Level Edmonton Center
05:12PM 54.6833 -88.1833 321° Northwest 420 483 34,000  Level Edmonton Center
05:13PM 54.8000 -88.3167 327° Northwest 420 483 34,000  Level Edmonton Center
05:14PM 54.8833 -88.4333 321° Northwest 420 483 34,000  Level Edmonton Center
05:15PM 54.9833 -88.5667 323° Northwest 420 483 34,000  Level Edmonton Center
05:16PM 55.0667 -88.6833 321° Northwest 420 483 34,000  Level Edmonton Center
05:17PM 55.1833 -88.8167 327° Northwest 430 495 34,000  Level Edmonton Center
05:18PM 55.2833 -88.9333 326° Northwest 430 495 34,000  Level Edmonton Center
05:19PM 55.3667 -89.0667 318° Northwest 430 495 34,000  Level Edmonton Center
05:20PM 55.4667 -89.2167 320° Northwest 440 506 34,000  Level Edmonton Center
05:21PM 55.5667 -89.3167 331° Northwest 440 506 34,000  Level Edmonton Center
05:22PM 55.6667 -89.4667 320° Northwest 430 495 34,000  Level Edmonton Center
05:23PM 55.7667 -89.6167 320° Northwest 430 495 34,000  Level Edmonton Center
05:24PM 55.8500 -89.7333 322° Northwest 430 495 34,000  Level Edmonton Center
05:25PM 55.9500 -89.8500 327° Northwest 430 495 34,000  Level Edmonton Center
05:26PM 56.0500 -90.0000 320° Northwest 430 495 34,000  Level Edmonton Center
05:27PM 56.1500 -90.1000 331° Northwest 430 495 34,000  Level Edmonton Center
05:28PM 56.2333 -90.2500 315° West 430 495 34,000  Level Edmonton Center
05:29PM 56.3333 -90.3667 327° Northwest 430 495 34,000  Level Edmonton Center
05:30PM 56.4333 -90.5167 320° Northwest 430 495 34,000  Level Edmonton Center
05:31PM 56.5167 -90.6667 315° West 440 506 34,000  Level Edmonton Center
05:32PM 56.6333 -90.8167 325° Northwest 440 506 34,000  Level Edmonton Center
05:33PM 56.7167 -90.9500 319° Northwest 440 506 34,000  Level Edmonton Center
05:34PM 56.8167 -91.0667 327° Northwest 440 506 34,000  Level Edmonton Center
05:35PM 56.9167 -91.2167 321° Northwest 450 518 34,000  Level Edmonton Center
05:36PM 57.0167 -91.3667 321° Northwest 450 518 34,000  Level Edmonton Center
05:37PM 57.1167 -91.5167 321° Northwest 460 529 34,000  Level Edmonton Center
05:38PM 57.2000 -91.6667 316° Northwest 450 518 34,000  Level Edmonton Center
05:39PM 57.3167 -91.8333 322° Northwest 470 541 34,000  Level Edmonton Center
05:40PM 57.4167 -91.9500 328° Northwest 460 529 34,000  Level Edmonton Center
05:41PM 57.5167 -92.1333 315° West 460 529 34,000  Level Edmonton Center
05:42PM 57.6167 -92.2667 324° Northwest 470 541 34,000  Level Edmonton Center
05:43PM 57.7167 -92.4500 316° Northwest 470 541 34,000  Level Edmonton Center
05:44PM 57.8167 -92.6000 321° Northwest 470 541 34,000  Level Edmonton Center
05:45PM 57.9167 -92.7667 319° Northwest 470 541 34,000  Level Edmonton Center
05:46PM 58.0167 -92.9000 325° Northwest 470 541 34,000  Level Edmonton Center
05:47PM 58.1333 -93.0833 320° Northwest 470 541 34,000  Level Edmonton Center
05:48PM 58.2000 -93.2167 314° West 460 529 34,000  Level Edmonton Center
05:49PM 58.3000 -93.3833 319° Northwest 470 541 34,000  Level Edmonton Center
05:50PM 58.4333 -93.5667 324° Northwest 470 541 34,000  Level Edmonton Center
05:51PM 58.5333 -93.7333 319° Northwest 490 564 34,000  Level Edmonton Center
05:52PM 58.6333 -93.9000 319° Northwest 480 552 34,000  Level Edmonton Center
05:54PM 58.8000 -94.2833 310° West 470 541 34,000  Level Edmonton Center
05:55PM 58.8667 -94.4500 308° West 480 552 34,000  Level Edmonton Center
05:56PM 58.9500 -94.6667 307° West 470 541 34,000  Level Edmonton Center
05:57PM 59.0333 -94.8667 309° West 470 541 34,000  Level Edmonton Center
05:58PM 59.1167 -95.0833 307° West 470 541 34,000  Level Edmonton Center
05:59PM 59.1833 -95.2833 303° West 470 541 34,000  Level Edmonton Center
06:00PM 59.2667 -95.5000 307° West 470 541 34,000  Level Edmonton Center
06:01PM 59.3500 -95.7167 307° West 480 552 34,000  Level Edmonton Center
06:02PM 59.4167 -95.9333 301° West 480 552 34,000  Level Edmonton Center
06:03PM 59.5000 -96.1333 309° West 460 529 34,000  Level Edmonton Center
06:05PM 59.5749 -96.4544 295° West  Level FlightAware Approximate
06:12PM 59.9549 -98.1629 295° West  Level FlightAware Approximate
06:13PM 60.0073 -98.4102 293° West  Level FlightAware Approximate
06:14PM 60.0593 -98.6582 293° West  Level FlightAware Approximate
06:15PM 60.1109 -98.9070 293° West  Level FlightAware Approximate
06:16PM 60.1619 -99.1566 292° West  Level FlightAware Approximate
06:16PM 60.4833 -99.0667 291° West 430 495 34,000  Level Edmonton Center
06:17PM 60.2125 -99.4069 292° West  Level FlightAware Approximate
06:17PM 60.5667 -99.3167 304° West 480 552 34,000  Level Edmonton Center
06:18PM 60.2627 -99.6581 292° West  Level FlightAware Approximate
06:18PM 60.6500 -99.5500 306° West 480 552 34,000  Level Edmonton Center
06:19PM 60.3123 -99.9099 292° West  Level FlightAware Approximate
06:19PM 60.7000 -99.7833 294° West 480 552 34,000  Level Edmonton Center
06:20PM 60.3615 -100.1626 292° West  Level FlightAware Approximate
06:20PM 60.7833 -100.0167 306° West 480 552 34,000  Level Edmonton Center
06:21PM 60.4102 -100.4160 291° West  Level FlightAware Approximate
06:21PM 60.8667 -100.2500 306° West 480 552 34,000  Level Edmonton Center
06:22PM 60.4584 -100.6702 291° West  Level FlightAware Approximate
06:22PM 60.9333 -100.4833 301° West 480 552 34,000  Level Edmonton Center
06:23PM 61.0000 -100.7167 301° West 480 552 34,000  Level Edmonton Center
06:24PM 61.0667 -100.9500 301° West 480 552 34,000  Level Edmonton Center
06:25PM 61.1500 -101.2000 305° West 480 552 34,000  Level Edmonton Center
06:26PM 61.2000 -101.4333 294° West 480 552 34,000  Level Edmonton Center
06:27PM 61.2833 -101.7000 303° West 480 552 34,000  Level Edmonton Center
06:28PM 61.3500 -101.9500 299° West 490 564 34,000  Level Edmonton Center
06:29PM 61.4167 -102.1833 301° West 490 564 34,000  Level Edmonton Center
06:30PM 61.4833 -102.4667 296° West 480 552 34,000  Level Edmonton Center
06:31PM 61.5500 -102.7167 299° West 490 564 34,000  Level Edmonton Center
06:32PM 61.6167 -102.9500 301° West 480 552 34,000  Level Edmonton Center
06:33PM 61.6833 -103.2000 299° West 480 552 34,000  Level Edmonton Center
06:34PM 61.7500 -103.4500 299° West 480 552 34,000  Level Edmonton Center
06:35PM 61.8167 -103.7000 300° West 490 564 34,000  Level Edmonton Center
06:36PM 61.8833 -103.9500 300° West 480 552 34,000  Level Edmonton Center
06:37PM 61.9333 -104.2000 293° West 490 564 34,000  Level Edmonton Center
06:38PM 62.0167 -104.4500 305° West 480 552 34,000  Level Edmonton Center
06:39PM 62.0833 -104.7333 297° West 480 552 34,000  Level Edmonton Center
06:40PM 62.1333 -105.0000 292° West 480 552 34,000  Level Edmonton Center
06:41PM 62.2000 -105.2500 300° West 480 552 34,000  Level Edmonton Center
06:42PM 62.2667 -105.5333 297° West 480 552 34,000  Level Edmonton Center
06:43PM 62.3333 -105.8000 298° West 480 552 34,000  Level Edmonton Center
06:44PM 62.3833 -106.0500 293° West 490 564 34,000  Level Edmonton Center
06:45PM 62.4500 -106.3167 298° West 480 552 34,000  Level Edmonton Center
06:46PM 62.5167 -106.5667 300° West 480 552 34,000  Level Edmonton Center
06:47PM 62.5667 -106.8333 292° West 480 552 34,000  Level Edmonton Center
06:48PM 62.6167 -107.1000 292° West 470 541 34,000  Level Edmonton Center
06:49PM 62.6833 -107.3167 304° West 470 541 34,000  Level Edmonton Center
06:50PM 62.7333 -107.5833 292° West 470 541 34,000  Level Edmonton Center
06:51PM 62.8000 -107.8500 299° West 480 552 34,000  Level Edmonton Center
06:52PM 62.8333 -108.1167 285° West 470 541 34,000  Level Edmonton Center
06:53PM 62.9000 -108.3833 299° West 470 541 34,000  Level Edmonton Center
06:54PM 62.9667 -108.6500 299° West 480 552 34,000  Level Edmonton Center
06:55PM 63.0167 -108.9167 293° West 480 552 34,000  Level Edmonton Center
06:56PM 63.0833 -109.2333 295° West 480 552 34,000  Level Edmonton Center
06:57PM 63.1333 -109.5000 293° West 480 552 34,000  Level Edmonton Center
06:58PM 63.1833 -109.7667 293° West 470 541 34,000  Level Edmonton Center
06:59PM 63.2333 -110.0333 293° West 470 541 34,000  Level Edmonton Center
07:00PM 63.2833 -110.3167 292° West 480 552 34,000  Level Edmonton Center
07:01PM 63.3500 -110.5833 299° West 480 552 34,000  Level Edmonton Center
07:02PM 63.3833 -110.8667 285° West 480 552 34,000  Level Edmonton Center
07:03PM 63.4333 -111.1500 292° West 480 552 34,000  Level Edmonton Center
07:04PM 63.4833 -111.4167 293° West 480 552 34,000  Level Edmonton Center
07:05PM 63.5333 -111.7000 292° West 480 552 34,000  Level Edmonton Center
07:06PM 63.5833 -111.9833 292° West 480 552 34,000  Level Edmonton Center
07:07PM 63.6500 -112.2667 298° West 480 552 34,000  Level Edmonton Center
07:08PM 63.6833 -112.5333 286° West 470 541 34,000  Level Edmonton Center
07:09PM 63.7333 -112.8167 292° West 480 552 34,000  Level Edmonton Center
07:10PM 63.7833 -113.1000 292° West 480 552 34,000  Level Edmonton Center
07:11PM 63.8167 -113.3833 285° West 480 552 34,000  Level Edmonton Center
07:12PM 63.8667 -113.6833 291° West 480 552 34,000  Level Edmonton Center
07:13PM 63.9333 -113.9667 298° West 480 552 34,000  Level Edmonton Center
07:14PM 63.9500 -114.2833 277° West 480 552 34,000  Level Edmonton Center
07:15PM 64.0167 -114.5333 301° West 480 552 34,000  Level Edmonton Center
07:16PM 64.0500 -114.8667 283° West 480 552 34,000  Level Edmonton Center
07:17PM 64.0833 -115.1500 285° West 480 552 34,000  Level Edmonton Center
07:18PM 64.1333 -115.4500 291° West 480 552 34,000  Level Edmonton Center
07:19PM 64.1833 -115.7333 292° West 470 541 34,000  Level Edmonton Center
07:20PM 64.2167 -116.0167 285° West 470 541 34,000  Level Edmonton Center
07:21PM 64.2667 -116.3167 291° West 470 541 34,000  Level Edmonton Center
07:22PM 64.3000 -116.6167 284° West 470 541 34,000  Level Edmonton Center
07:23PM 64.3333 -116.9000 285° West 470 541 34,000  Level Edmonton Center
07:24PM 64.3833 -117.2000 291° West 470 541 34,000  Level Edmonton Center
07:25PM 64.4000 -117.5000 277° West 470 541 34,000  Level Edmonton Center
07:26PM 64.4500 -117.7500 295° West 460 529 34,000  Level Edmonton Center
07:27PM 64.4833 -118.1000 283° West 460 529 34,000  Level Edmonton Center
07:28PM 64.5167 -118.3500 287° West 460 529 34,000  Level Edmonton Center
07:29PM 64.5667 -118.6500 291° West 460 529 34,000  Level Edmonton Center
07:30PM 64.5833 -118.9500 278° West 460 529 34,000  Level Edmonton Center
07:31PM 64.6333 -119.2500 291° West 460 529 34,000  Level Edmonton Center
07:32PM 64.6500 -119.5500 278° West 460 529 34,000  Level Edmonton Center
07:33PM 64.7000 -119.8167 294° West 460 529 34,000  Level Edmonton Center
07:34PM 64.7167 -120.1000 278° West 460 529 34,000  Level Edmonton Center
07:35PM 64.7500 -120.4167 284° West 460 529 34,000  Level Edmonton Center
07:36PM 64.7667 -120.7167 278° West 460 529 34,000  Level Edmonton Center
07:37PM 64.8167 -121.0167 292° West 460 529 34,000  Level Edmonton Center
07:39PM 64.7939 -121.4221 263° West  Level FlightAware Approximate
07:46PM 64.9258 -123.5981 287° West  Level FlightAware Approximate
07:47PM 64.9607 -123.9033 285° West  Level FlightAware Approximate
07:48PM 64.9951 -124.2093 285° West  Level FlightAware Approximate
07:49PM 65.0288 -124.5161 285° West  Level FlightAware Approximate
07:50PM 65.0619 -124.8236 284° West  Level FlightAware Approximate
07:51PM 65.0943 -125.1319 284° West  Level FlightAware Approximate
07:52PM 65.1261 -125.4409 284° West  Level FlightAware Approximate
07:53PM 65.1573 -125.7507 284° West  Level FlightAware Approximate
07:54PM 65.1879 -126.0612 283° West  Level FlightAware Approximate
07:55PM 65.2178 -126.3724 283° West  Level FlightAware Approximate
07:56PM 65.2470 -126.6843 283° West  Level FlightAware Approximate
07:57PM 65.2751 -126.9972 282° West  Level FlightAware Approximate
07:58PM 65.3025 -127.3107 282° West  Level FlightAware Approximate
07:59PM 65.3292 -127.6249 282° West  Level FlightAware Approximate
08:00PM 65.3553 -127.9397 281° West  Level FlightAware Approximate
08:01PM 65.3807 -128.2551 281° West  Level FlightAware Approximate
08:02PM 65.4055 -128.5711 281° West  Level FlightAware Approximate
08:03PM 65.4277 -128.8885 279° West  Level FlightAware Approximate
08:04PM 65.4476 -129.2071 279° West  Level FlightAware Approximate
08:05PM 65.4669 -129.5261 278° West  Level FlightAware Approximate
08:06PM 65.4854 -129.8456 278° West  Level FlightAware Approximate
08:07PM 65.5033 -130.1655 278° West  Level FlightAware Approximate
08:08PM 65.5223 -130.4856 278° West  Level FlightAware Approximate
08:09PM 65.5406 -130.8062 278° West  Level FlightAware Approximate
08:10PM 65.5583 -131.1272 278° West  Level FlightAware Approximate
08:11PM 65.5753 -131.4486 277° West  Level FlightAware Approximate
08:12PM 65.5916 -131.7705 277° West  Level FlightAware Approximate
08:13PM 65.6072 -132.0927 277° West  Level FlightAware Approximate
08:14PM 65.6221 -132.4154 277° West  Level FlightAware Approximate
08:15PM 65.6364 -132.7384 276° West  Level FlightAware Approximate
08:16PM 65.6500 -133.0617 276° West  Level FlightAware Approximate
08:17PM 65.6628 -133.3854 276° West  Level FlightAware Approximate
08:18PM 65.6750 -133.7093 275° West  Level FlightAware Approximate
08:19PM 65.6865 -134.0336 275° West  Level FlightAware Approximate
08:20PM 65.6974 -134.3582 275° West  Level FlightAware Approximate
08:21PM 65.7075 -134.6830 274° West  Level FlightAware Approximate
08:22PM 65.7169 -135.0081 274° West  Level FlightAware Approximate
08:23PM 65.7257 -135.3334 274° West  Level FlightAware Approximate
08:24PM 65.7337 -135.6589 274° West  Level FlightAware Approximate
08:25PM 65.7411 -135.9846 273° West  Level FlightAware Approximate
08:26PM 65.7477 -136.3105 273° West  Level FlightAware Approximate
08:27PM 65.7537 -136.6365 273° West  Level FlightAware Approximate
08:28PM 65.7590 -136.9627 272° West  Level FlightAware Approximate
08:29PM 65.7636 -137.2890 272° West  Level FlightAware Approximate
08:30PM 65.7674 -137.6154 272° West  Level FlightAware Approximate
08:31PM 65.7706 -137.9419 272° West  Level FlightAware Approximate
08:31PM 65.7667 -137.2833 270° West 430 495 34,000  Level Anchorage Center
08:32PM 65.7731 -138.2684 271° West  Level FlightAware Approximate
08:32PM 65.7667 -137.5667 270° West 430 495 34,000  Level Anchorage Center
08:33PM 65.7749 -138.5951 271° West  Level FlightAware Approximate
08:33PM 65.7667 -137.8500 270° West 430 495 34,000  Level Anchorage Center
08:34PM 65.7760 -138.9217 271° West  Level FlightAware Approximate
08:34PM 65.7667 -138.1500 270° West 430 495 34,000  Level Anchorage Center
08:35PM 65.7764 -139.2484 270° West  Level FlightAware Approximate
08:35PM 65.7667 -138.4500 270° West 440 506 34,000  Level Anchorage Center
08:36PM 65.7761 -139.5751 270° West  Level FlightAware Approximate
08:36PM 65.7667 -138.7333 270° West 430 495 34,000  Level Anchorage Center
08:37PM 65.7833 -139.0167 278° West 420 483 34,000  Level Anchorage Center
08:38PM 65.7667 -139.3000 262° West 420 483 34,000  Level Anchorage Center
08:39PM 65.7833 -139.5833 278° West 420 483 34,000  Level Anchorage Center
08:40PM 65.7833 -139.8667 270° West 420 483 34,000  Level Anchorage Center
08:41PM 65.7667 -140.1500 262° West 430 495 34,000  Level Anchorage Center
08:42PM 65.7667 -140.4500 270° West 430 495 34,000  Level Anchorage Center
08:43PM 65.7667 -140.7333 270° West 420 483 34,000  Level Anchorage Center
08:44PM 65.7667 -141.0333 270° West 440 506 34,000  Level Anchorage Center
08:45PM 65.7667 -141.3167 270° West 440 506 34,000  Level Anchorage Center
08:46PM 65.7833 -141.6000 278° West 430 495 34,000  Level Anchorage Center
08:47PM 65.7833 -141.9000 270° West 430 495 34,000  Level Anchorage Center
08:48PM 65.8000 -142.1833 278° West 440 506 34,000  Level Anchorage Center
08:49PM 65.8000 -142.4833 270° West 430 495 34,000  Level Anchorage Center
08:50PM 65.8000 -142.7833 270° West 440 506 34,000  Level Anchorage Center
08:51PM 65.8167 -143.0833 278° West 440 506 34,000  Level Anchorage Center
08:52PM 65.8167 -143.3833 270° West 440 506 34,000  Level Anchorage Center
08:53PM 65.8167 -143.6833 270° West 440 506 34,000  Level Anchorage Center
08:54PM 65.8167 -143.9833 270° West 440 506 34,000  Level Anchorage Center
08:55PM 65.8167 -144.2833 270° West 440 506 34,000  Level Anchorage Center
08:56PM 65.8167 -144.5833 270° West 440 506 34,000  Level Anchorage Center
08:57PM 65.8167 -144.8833 270° West 450 518 34,000  Level Anchorage Center
08:58PM 65.8167 -145.1833 270° West 450 518 34,000  Level Anchorage Center
08:59PM 65.8167 -145.4833 270° West 440 506 34,000  Level Anchorage Center
09:00PM 65.8167 -145.8000 270° West 440 506 34,000  Level Anchorage Center
09:01PM 65.8167 -146.1000 270° West 440 506 34,000  Level Anchorage Center
09:02PM 65.8167 -146.4000 270° West 450 518 34,000  Level Anchorage Center
09:03PM 65.8167 -146.7000 270° West 450 518 34,000  Level Anchorage Center
09:04PM 65.8167 -147.0000 270° West 440 506 34,000  Level Anchorage Center
09:05PM 65.8167 -147.3000 270° West 440 506 34,000  Level Anchorage Center
09:06PM 65.8000 -147.5833 262° West 440 506 34,000  Level Anchorage Center
09:07PM 65.8000 -147.8833 270° West 440 506 34,000  Level Anchorage Center
09:08PM 65.8000 -148.2333 270° West 440 506 34,000  Level Anchorage Center
09:09PM 65.7833 -148.5333 262° West 440 506 34,000  Level Anchorage Center
09:10PM 65.7833 -148.8333 270° West 440 506 34,000  Level Anchorage Center
09:11PM 65.7833 -149.1333 270° West 440 506 34,000  Level Anchorage Center
09:12PM 65.7667 -149.4333 262° West 440 506 34,000  Level Anchorage Center
09:13PM 65.7667 -149.7333 270° West 440 506 34,000  Level Anchorage Center
09:14PM 65.7500 -150.0333 262° West 440 506 34,000  Level Anchorage Center
09:15PM 65.7500 -150.3333 270° West 450 518 34,000  Level Anchorage Center
09:16PM 65.7333 -150.6333 262° West 450 518 34,000  Level Anchorage Center
09:17PM 65.7167 -150.9500 263° West 450 518 34,000  Level Anchorage Center
09:18PM 65.7167 -151.2167 270° West 440 506 34,000  Level Anchorage Center
09:19PM 65.7000 -151.5167 262° West 450 518 34,000  Level Anchorage Center
09:20PM 65.6833 -151.8167 262° West 450 518 34,000  Level Anchorage Center
09:21PM 65.6667 -152.1167 262° West 450 518 34,000  Level Anchorage Center
09:22PM 65.6667 -152.4333 270° West 450 518 34,000  Level Anchorage Center
09:23PM 65.6500 -152.7333 262° West 460 529 34,000  Level Anchorage Center
09:24PM 65.6333 -153.0500 263° West 460 529 34,000  Level Anchorage Center
09:25PM 65.6167 -153.3500 262° West 460 529 34,000  Level Anchorage Center
09:26PM 65.6000 -153.6667 263° West 460 529 34,000  Level Anchorage Center
09:27PM 65.5833 -153.9833 263° West 460 529 34,000  Level Anchorage Center
09:28PM 65.5667 -154.2833 262° West 460 529 34,000  Level Anchorage Center
09:29PM 65.5333 -154.6000 256° West 470 541 34,000  Level Anchorage Center
09:30PM 65.5167 -154.9167 263° West 460 529 34,000  Level Anchorage Center
09:31PM 65.5000 -155.2167 263° West 460 529 34,000  Level Anchorage Center
09:32PM 65.4833 -155.5333 263° West 460 529 34,000  Level Anchorage Center
09:33PM 65.4667 -155.8500 263° West 470 541 34,000  Level Anchorage Center
09:34PM 65.4333 -156.1667 256° West 470 541 34,000  Level Anchorage Center
09:35PM 65.4167 -156.4833 263° West 470 541 34,000  Level Anchorage Center
09:36PM 65.3833 -156.7833 255° West 470 541 34,000  Level Anchorage Center
09:37PM 65.3667 -157.1000 263° West 480 552 34,000  Level Anchorage Center
09:38PM 65.3333 -157.4167 256° West 480 552 34,000  Level Anchorage Center
09:39PM 65.3167 -157.7333 263° West 470 541 34,000  Level Anchorage Center
09:40PM 65.2833 -158.0500 256° West 480 552 34,000  Level Anchorage Center
09:41PM 65.2500 -158.4167 258° West 490 564 34,000  Level Anchorage Center
09:42PM 65.2333 -158.7333 263° West 470 541 34,000 360 Level Anchorage Center
09:43PM 65.2000 -159.0333 255° West 480 552 34,800 960 Climbing Anchorage Center
09:44PM 65.1667 -159.3500 256° West 480 552 36,000 540 Climbing Anchorage Center
09:45PM 65.1333 -159.6667 256° West 480 552 36,000  Level Anchorage Center
09:46PM 65.1167 -159.9500 262° West 470 541 36,000  Level Anchorage Center
09:47PM 65.0833 -160.2667 256° West 470 541 36,000  Level Anchorage Center
09:48PM 65.0500 -160.5500 255° West 460 529 36,000  Level Anchorage Center
09:49PM 65.0167 -160.8667 256° West 470 541 36,000  Level Anchorage Center
09:50PM 64.9833 -161.1833 256° West 470 541 36,000  Level Anchorage Center
09:51PM 64.9500 -161.4833 255° West 480 552 36,000  Level Anchorage Center
09:52PM 64.9167 -161.7833 255° West 470 541 36,000  Level Anchorage Center
09:53PM 64.8833 -162.0833 255° West 470 541 36,000  Level Anchorage Center
09:54PM 64.8500 -162.3833 255° West 470 541 36,000  Level Anchorage Center
09:55PM 64.8167 -162.6833 255° West 480 552 36,000  Level Anchorage Center
09:56PM 64.7667 -162.9833 249° West 470 541 36,000  Level Anchorage Center
09:57PM 64.7333 -163.2833 256° West 470 541 36,000  Level Anchorage Center
09:58PM 64.7000 -163.5833 256° West 460 529 36,000  Level Anchorage Center
09:59PM 64.6667 -163.8667 255° West 460 529 36,000  Level Anchorage Center
10:00PM 64.6167 -164.1667 249° West 480 552 36,000  Level Anchorage Center
10:01PM 64.5833 -164.4667 256° West 470 541 36,000  Level Anchorage Center
10:02PM 64.5500 -164.7500 255° West 470 541 36,000  Level Anchorage Center
10:03PM 64.5000 -165.0500 249° West 460 529 36,000  Level Anchorage Center
10:04PM 64.4500 -165.3167 247° West 460 529 36,000  Level Anchorage Center
10:05PM 64.3833 -165.5833 240° Southwest 470 541 36,000  Level Anchorage Center
10:06PM 64.3167 -165.8500 240° Southwest 470 541 36,000  Level Anchorage Center
10:07PM 64.2500 -166.1167 240° Southwest 480 552 36,000  Level Anchorage Center
10:08PM 64.1833 -166.3667 239° Southwest 480 552 36,000  Level Anchorage Center
10:09PM 64.1000 -166.6333 234° Southwest 480 552 36,000  Level Anchorage Center
10:10PM 64.0333 -166.9000 240° Southwest 470 541 36,000  Level Anchorage Center
10:11PM 63.9667 -167.1500 239° Southwest 470 541 36,000  Level Anchorage Center
10:12PM 63.9000 -167.4000 239° Southwest 480 552 36,000  Level Anchorage Center
10:13PM 63.8167 -167.6667 235° Southwest 470 541 36,000  Level Anchorage Center
10:14PM 63.7500 -167.9167 239° Southwest 480 552 36,000  Level Anchorage Center
10:15PM 63.6833 -168.1667 239° Southwest 470 541 36,000  Level Anchorage Center
10:16PM 63.6000 -168.4167 233° Southwest 480 552 36,000  Level Anchorage Center
10:17PM 63.5333 -168.6667 239° Southwest 470 541 36,000  Level Anchorage Center
10:18PM 63.4667 -168.9167 239° Southwest 470 541 36,000  Level Anchorage Center
10:19PM 63.4000 -169.1500 238° Southwest 460 529 36,000  Level Anchorage Center
10:20PM 63.3167 -169.4000 233° Southwest 470 541 36,000  Level Anchorage Center
10:21PM 63.2500 -169.6333 238° Southwest 470 541 36,000  Level Anchorage Center
10:22PM 63.1667 -169.8667 232° Southwest 470 541 36,000  Level Anchorage Center
10:23PM 63.1000 -170.1167 240° Southwest 460 529 36,000  Level Anchorage Center
10:24PM 63.0167 -170.3500 232° Southwest 470 541 36,000  Level Anchorage Center
10:25PM 62.9500 -170.5833 238° Southwest 460 529 36,000  Level Anchorage Center
10:26PM 62.8667 -170.8333 234° Southwest 470 541 36,000  Level Anchorage Center
10:27PM 62.8000 -171.0667 238° Southwest 470 541 36,000  Level Anchorage Center
10:28PM 62.7167 -171.3000 232° Southwest 480 552 36,000  Level Anchorage Center
10:29PM 62.6333 -171.5167 230° Southwest 460 529 36,000  Level Anchorage Center
10:30PM 62.5667 -171.7500 238° Southwest 480 552 36,000  Level Anchorage Center
10:31PM 62.4833 -171.9833 232° Southwest 460 529 36,000  Level Anchorage Center
10:32PM 62.4000 -172.2167 232° Southwest 470 541 36,000  Level Anchorage Center
10:33PM 62.3167 -172.4500 233° Southwest 480 552 36,000  Level Anchorage Center
10:34PM 62.2500 -172.6667 237° Southwest 470 541 36,000  Level Anchorage Center
10:35PM 62.1667 -172.9000 233° Southwest 470 541 36,000  Level Anchorage Center
10:36PM 62.0833 -173.1167 231° Southwest 480 552 36,000  Level Anchorage Center
10:37PM 62.0000 -173.3500 233° Southwest 470 541 36,000  Level Anchorage Center
10:38PM 61.9167 -173.5667 231° Southwest 480 552 36,000  Level Anchorage Center
10:39PM 61.8333 -173.8000 233° Southwest 490 564 36,000  Level Anchorage Center
10:40PM 61.7500 -174.0167 231° Southwest 470 541 36,000  Level Anchorage Center
10:41PM 61.6667 -174.2333 231° Southwest 480 552 36,000  Level Anchorage Center
10:42PM 61.6000 -174.4667 239° Southwest 470 541 36,000  Level Anchorage Center
10:45PM 61.4863 -174.7437 230° Southwest  Level FlightAware Approximate
10:51PM 60.8167 -176.4333 230° Southwest 487 560 36,000  Level Anchorage Center
10:52PM 60.8915 -176.2167 231° Southwest  Level FlightAware Approximate
10:53PM 60.8062 -176.4242 230° Southwest  Level FlightAware Approximate
10:54PM 60.7205 -176.6306 230° Southwest  Level FlightAware Approximate
10:55PM 60.6345 -176.8358 230° Southwest  Level FlightAware Approximate
10:56PM 60.5481 -177.0400 229° Southwest  Level FlightAware Approximate
10:57PM 60.4615 -177.2431 229° Southwest  Level FlightAware Approximate
10:58PM 60.2891 -177.6939 229° Southwest 487 560 36,000  Level FlightAware Transoceanic
10:58PM 60.2000 -177.9000 230° Southwest 503 579 36,000  Level Anchorage Center
10:59PM 60.2000 -177.9000 230° Southwest 487 560 36,000  Level FlightAware Transoceanic
11:00PM 60.1046 -178.1267 230° Southwest 487 560 36,000  Level FlightAware Transoceanic
11:01PM 60.0089 -178.3521 230° Southwest 487 560 36,000  Level FlightAware Transoceanic
11:02PM 59.9127 -178.5762 229° Southwest 487 560 36,000  Level FlightAware Transoceanic
11:03PM 59.8162 -178.7991 229° Southwest 487 560 36,000  Level FlightAware Transoceanic
11:04PM 59.7193 -179.0206 229° Southwest 487 560 36,000  Level FlightAware Transoceanic
11:05PM 59.6429 -179.1937 229° Southwest 503 579 36,000  Level FlightAware Transoceanic
11:06PM 59.5489 -179.4052 229° Southwest 503 579 36,000  Level FlightAware Transoceanic
11:07PM 59.4545 -179.6154 228° Southwest 503 579 36,000  Level FlightAware Transoceanic
11:08PM 59.3597 -179.8245 228° Southwest 503 579 36,000  Level FlightAware Transoceanic
11:09PM 59.2647 179.9676 228° Southwest 503 579 36,000  Level FlightAware Transoceanic
11:10PM 59.1693 179.7608 228° Southwest 503 579 36,000  Level FlightAware Transoceanic
11:11PM 59.0736 179.5552 228° Southwest 503 579 36,000  Level FlightAware Transoceanic
11:12PM 58.9775 179.3508 228° Southwest 503 579 36,000  Level FlightAware Transoceanic
11:13PM 58.8811 179.1474 227° Southwest 503 579 36,000  Level FlightAware Transoceanic
11:14PM 58.7845 178.9453 227° Southwest 503 579 36,000  Level FlightAware Transoceanic
11:15PM 58.6875 178.7442 227° Southwest 503 579 36,000  Level FlightAware Transoceanic
11:16PM 58.5902 178.5443 227° Southwest 503 579 36,000  Level FlightAware Transoceanic
11:17PM 58.4925 178.3454 227° Southwest 503 579 36,000  Level FlightAware Transoceanic
11:18PM 58.3946 178.1477 226° Southwest 503 579 36,000  Level FlightAware Transoceanic
11:18PM 58.3500 178.0667 227° Southwest 519 597 36,000  Level Anchorage Center
11:19PM 58.2964 177.9511 226° Southwest 503 579 36,000  Level FlightAware Transoceanic
11:20PM 58.1979 177.7555 226° Southwest 503 579 36,000  Level FlightAware Transoceanic
11:21PM 58.0990 177.5611 226° Southwest 503 579 36,000  Level FlightAware Transoceanic
11:22PM 57.9999 177.3677 226° Southwest 503 579 36,000  Level FlightAware Transoceanic
11:23PM 57.9005 177.1754 226° Southwest 503 579 36,000  Level FlightAware Transoceanic
11:24PM 57.7857 176.9580 226° Southwest 519 597 36,000  Level FlightAware Transoceanic
11:25PM 57.6907 176.7766 225° Southwest 519 597 36,000  Level FlightAware Transoceanic
11:26PM 57.5955 176.5962 225° Southwest 519 597 36,000  Level FlightAware Transoceanic
11:27PM 57.5000 176.4167 226° Southwest 519 597 36,000  Level FlightAware Transoceanic
11:27PM 57.5000 176.4167 226° Southwest 535 616 36,000  Level Anchorage Center
11:28PM 57.3918 176.2112 226° Southwest 519 597 36,000  Level FlightAware Transoceanic
11:29PM 57.2833 176.0070 225° Southwest 519 597 36,000  Level FlightAware Transoceanic
11:30PM 57.1745 175.8040 225° Southwest 519 597 36,000  Level FlightAware Transoceanic
11:31PM 57.0653 175.6022 225° Southwest 519 597 36,000  Level FlightAware Transoceanic
11:32PM 56.9558 175.4016 225° Southwest 519 597 36,000  Level FlightAware Transoceanic
11:33PM 56.8735 175.2518 225° Southwest 535 616 36,000  Level FlightAware Transoceanic
11:34PM 56.7680 175.0615 225° Southwest 535 616 36,000  Level FlightAware Transoceanic
11:35PM 56.6623 174.8723 224° Southwest 535 616 36,000  Level FlightAware Transoceanic
11:36PM 56.5562 174.6841 224° Southwest 535 616 36,000  Level FlightAware Transoceanic
11:37PM 56.4499 174.4969 224° Southwest 535 616 36,000  Level FlightAware Transoceanic
11:38PM 56.3433 174.3108 224° Southwest 535 616 36,000  Level FlightAware Transoceanic
11:39PM 56.2365 174.1257 224° Southwest 535 616 36,000  Level FlightAware Transoceanic
11:40PM 56.1293 173.9417 224° Southwest 535 616 36,000  Level FlightAware Transoceanic
11:41PM 56.0219 173.7587 223° Southwest 535 616 36,000 960 Level FlightAware Transoceanic
11:41PM 55.9833 173.7167 223° Southwest 530 610 37,000  Climbing Anchorage Center
11:42PM 55.9142 173.5767 223° Southwest 535 616 36,000  Descending FlightAware Transoceanic
11:42PM 55.9000 173.5500 228° Southwest 530 610 37,000  Climbing Anchorage Center
11:43PM 55.8063 173.3957 223° Southwest 535 616 36,000  Descending FlightAware Transoceanic
11:43PM 55.7833 173.3667 221° Southwest 530 610 37,000  Climbing Anchorage Center
11:44PM 55.6981 173.2157 223° Southwest 535 616 36,000  Descending FlightAware Transoceanic
11:44PM 55.6833 173.2000 223° Southwest 530 610 37,000  Climbing Anchorage Center
11:45PM 55.5896 173.0367 223° Southwest 535 616 36,000  Descending FlightAware Transoceanic
11:45PM 55.5667 173.0167 222° Southwest 530 610 37,000  Climbing Anchorage Center
11:46PM 55.4808 172.8587 223° Southwest 535 616 36,000  Descending FlightAware Transoceanic
11:46PM 55.4500 172.8167 224° Southwest 520 598 37,000 960 Climbing Anchorage Center
11:47PM 55.3500 172.6667 220° Southwest 530 610 37,000  Level Anchorage Center
11:48PM 55.2333 172.4667 224° Southwest 530 610 37,000  Level Anchorage Center
11:49PM 55.1500 172.3333 222° Southwest 520 598 37,000  Level Anchorage Center
11:50PM 55.0167 172.1333 221° Southwest 530 610 37,000  Level Anchorage Center
11:51PM 54.9333 171.9833 226° Southwest 530 610 37,000  Level Anchorage Center
11:52PM 54.8333 171.7667 231° Southwest 520 598 37,000  Level Anchorage Center
11:53PM 54.7500 171.5500 236° Southwest 520 598 37,000  Level Anchorage Center
11:54PM 54.6667 171.3667 232° Southwest 520 598 37,000  Level Anchorage Center
11:55PM 54.5833 171.1500 236° Southwest 520 598 37,000  Level Anchorage Center
11:56PM 54.5000 170.9667 232° Southwest 530 610 37,000  Level Anchorage Center
11:57PM 54.4167 170.7500 237° Southwest 520 598 37,000  Level Anchorage Center
11:58PM 54.3333 170.5833 229° Southwest 540 621 37,000  Level Anchorage Center
11:59PM 54.2333 170.3500 234° Southwest 560 644 37,000  Level Anchorage Center
12:00AM 54.1500 170.1333 237° Southwest 520 598 37,000  Level Anchorage Center
12:01AM 54.0667 169.9667 230° Southwest 540 621 37,000  Level Anchorage Center
12:02AM 53.9667 169.7500 232° Southwest 530 610 37,000  Level Anchorage Center
12:03AM 53.9000 169.5833 236° Southwest 510 587 37,000  Level Anchorage Center
12:04AM 53.8000 169.3667 232° Southwest 510 587 37,000  Level Anchorage Center
12:05AM 53.7167 169.2000 230° Southwest 530 610 37,000  Level Anchorage Center
12:06AM 53.6500 168.9833 243° Southwest 490 564 37,000  Level Anchorage Center
12:07AM 53.6000 168.8167 243° Southwest 490 564 37,000  Level Anchorage Center
12:08AM 53.5167 168.5833 239° Southwest 500 575 37,000  Level Anchorage Center
12:09AM 53.4500 168.3667 243° Southwest 490 564 37,000  Level Anchorage Center
12:11AM 53.3167 167.9944 240° Southwest  Level FlightAware Approximate
12:11AM 53.2667 167.8500 240° Southwest 498 573 37,000  Level Anchorage Center
12:18AM 52.8301 166.6391 239° Southwest 498 573 37,000  Level FlightAware Transoceanic
12:19AM 52.7561 166.4396 238° Southwest 498 573 37,000  Level FlightAware Transoceanic
12:20AM 52.6818 166.2409 238° Southwest 498 573 37,000  Level FlightAware Transoceanic
12:21AM 52.6072 166.0428 238° Southwest 498 573 37,000  Level FlightAware Transoceanic
12:22AM 52.5322 165.8454 238° Southwest 498 573 37,000  Level FlightAware Transoceanic
12:23AM 52.4570 165.6486 238° Southwest 498 573 37,000  Level FlightAware Transoceanic
12:24AM 52.3814 165.4526 238° Southwest 498 573 37,000  Level FlightAware Transoceanic
12:25AM 52.3054 165.2572 237° Southwest 498 573 37,000  Level FlightAware Transoceanic
12:26AM 52.2292 165.0624 237° Southwest 498 573 37,000  Level FlightAware Transoceanic
12:27AM 52.1526 164.8684 237° Southwest 498 573 37,000  Level FlightAware Transoceanic
12:28AM 52.0757 164.6750 237° Southwest 498 573 37,000  Level FlightAware Transoceanic
12:29AM 51.9985 164.4823 237° Southwest 498 573 37,000  Level FlightAware Transoceanic
12:30AM 51.9210 164.2902 237° Southwest 498 573 37,000  Level FlightAware Transoceanic
12:31AM 51.8432 164.0988 237° Southwest 498 573 37,000  Level FlightAware Transoceanic
12:32AM 51.7651 163.9081 236° Southwest 498 573 37,000  Level FlightAware Transoceanic
12:33AM 51.6866 163.7180 236° Southwest 498 573 37,000  Level FlightAware Transoceanic
12:33AM 51.6500 163.6500 236° Southwest 504 580 37,000  Level Anchorage Center
12:34AM 51.6079 163.5286 236° Southwest 498 573 37,000  Level FlightAware Transoceanic
12:35AM 51.5288 163.3399 236° Southwest 498 573 37,000  Level FlightAware Transoceanic
12:36AM 51.4495 163.1518 236° Southwest 498 573 37,000  Level FlightAware Transoceanic
12:37AM 51.3698 162.9643 236° Southwest 498 573 37,000  Level FlightAware Transoceanic
12:38AM 51.2899 162.7775 236° Southwest 498 573 37,000  Level FlightAware Transoceanic
12:38AM 51.2833 162.7500 235° Southwest 497 572 37,000  Level Anchorage Center
12:39AM 51.2096 162.5914 235° Southwest 498 573 37,000  Level FlightAware Transoceanic
12:40AM 51.1611 162.4939 235° Southwest 504 580 37,000  Level FlightAware Transoceanic
12:41AM 51.0785 162.3036 235° Southwest 504 580 37,000  Level FlightAware Transoceanic
12:42AM 50.9956 162.1140 235° Southwest 504 580 37,000  Level FlightAware Transoceanic
12:43AM 50.9124 161.9251 235° Southwest 504 580 37,000  Level FlightAware Transoceanic
12:44AM 50.7994 161.6519 235° Southwest 497 572 37,000  Level FlightAware Transoceanic
12:45AM 50.7177 161.4711 234° Southwest 497 572 37,000  Level FlightAware Transoceanic
12:46AM 50.6358 161.2909 234° Southwest 497 572 37,000  Level FlightAware Transoceanic
12:47AM 50.5536 161.1113 234° Southwest 497 572 37,000  Level FlightAware Transoceanic
12:48AM 50.4711 160.9324 234° Southwest 497 572 37,000  Level FlightAware Transoceanic
12:49AM 50.3883 160.7541 234° Southwest 497 572 37,000  Level FlightAware Transoceanic
12:50AM 50.3053 160.5764 234° Southwest 497 572 37,000  Level FlightAware Transoceanic
12:51AM 50.2220 160.3994 234° Southwest 497 572 37,000  Level FlightAware Transoceanic
12:51AM 50.2000 160.3833 234° Southwest 495 570 37,000  Level Anchorage Center
12:52AM 50.1385 160.2230 233° Southwest 497 572 37,000  Level FlightAware Transoceanic
12:53AM 50.0546 160.0471 233° Southwest 497 572 37,000  Level FlightAware Transoceanic
12:54AM 49.9705 159.8719 233° Southwest 497 572 37,000  Level FlightAware Transoceanic
12:55AM 49.8862 159.6974 233° Southwest 497 572 37,000  Level FlightAware Transoceanic
12:56AM 49.8016 159.5234 233° Southwest 497 572 37,000  Level FlightAware Transoceanic
12:57AM 49.7167 159.3500 233° Southwest 497 572 37,000  Level FlightAware Transoceanic
12:58AM 49.7167 159.3500 233° Southwest 495 570 37,000  Level FlightAware Transoceanic
12:59AM 49.6315 159.1761 233° Southwest 495 570 37,000  Level FlightAware Transoceanic
01:00AM 49.5460 159.0029 233° Southwest 495 570 37,000  Level FlightAware Transoceanic
01:01AM 49.4603 158.8303 233° Southwest 495 570 37,000  Level FlightAware Transoceanic
01:02AM 49.3744 158.6582 232° Southwest 495 570 37,000  Level FlightAware Transoceanic
01:03AM 49.2881 158.4868 232° Southwest 495 570 37,000  Level FlightAware Transoceanic
01:04AM 49.2017 158.3160 232° Southwest 495 570 37,000  Level FlightAware Transoceanic
01:05AM 49.1149 158.1457 232° Southwest 495 570 37,000  Level FlightAware Transoceanic
01:06AM 49.0280 157.9761 232° Southwest 495 570 37,000  Level FlightAware Transoceanic
01:07AM 48.9408 157.8071 232° Southwest 495 570 37,000  Level FlightAware Transoceanic
01:08AM 48.8533 157.6386 232° Southwest 495 570 37,000  Level FlightAware Transoceanic
01:09AM 48.7656 157.4707 232° Southwest 495 570 37,000  Level FlightAware Transoceanic
01:10AM 48.6776 157.3034 231° Southwest 495 570 37,000  Level FlightAware Transoceanic
01:11AM 48.5894 157.1367 231° Southwest 495 570 37,000  Level FlightAware Transoceanic
01:12AM 48.5010 156.9706 231° Southwest 495 570 37,000  Level FlightAware Transoceanic
01:13AM 48.4123 156.8051 231° Southwest 495 570 37,000  Level FlightAware Transoceanic
01:14AM 48.3234 156.6401 231° Southwest 495 570 37,000  Level FlightAware Transoceanic
01:15AM 48.2343 156.4757 231° Southwest 495 570 37,000  Level FlightAware Transoceanic
01:16AM 48.1449 156.3119 231° Southwest 495 570 37,000  Level FlightAware Transoceanic
01:17AM 48.0553 156.1487 231° Southwest 495 570 37,000  Level FlightAware Transoceanic
01:18AM 47.9654 155.9860 230° Southwest 495 570 37,000  Level FlightAware Transoceanic
01:19AM 47.8754 155.8239 230° Southwest 495 570 37,000  Level FlightAware Transoceanic
01:20AM 47.7851 155.6624 230° Southwest 495 570 37,000  Level FlightAware Transoceanic
01:21AM 47.6945 155.5014 230° Southwest 495 570 37,000  Level FlightAware Transoceanic
01:22AM 47.6038 155.3409 230° Southwest 495 570 37,000  Level FlightAware Transoceanic
01:23AM 47.5128 155.1811 230° Southwest 495 570 37,000  Level FlightAware Transoceanic
01:24AM 47.4216 155.0218 230° Southwest 495 570 37,000  Level FlightAware Transoceanic
01:25AM 47.3302 154.8630 230° Southwest 495 570 37,000  Level FlightAware Transoceanic
01:26AM 47.2386 154.7048 229° Southwest 495 570 37,000  Level FlightAware Transoceanic
01:27AM 47.1468 154.5471 229° Southwest 495 570 37,000  Level FlightAware Transoceanic
01:28AM 47.0547 154.3900 229° Southwest 495 570 37,000  Level FlightAware Transoceanic
01:29AM 46.9624 154.2334 229° Southwest 495 570 37,000  Level FlightAware Transoceanic
01:30AM 46.8699 154.0774 229° Southwest 495 570 37,000  Level FlightAware Transoceanic
01:31AM 46.7772 153.9219 229° Southwest 495 570 37,000  Level FlightAware Transoceanic
01:32AM 46.6843 153.7669 229° Southwest 495 570 37,000  Level FlightAware Transoceanic
01:33AM 46.5912 153.6125 229° Southwest 495 570 37,000  Level FlightAware Transoceanic
01:34AM 46.4979 153.4586 229° Southwest 495 570 37,000  Level FlightAware Transoceanic
01:35AM 46.4043 153.3052 228° Southwest 495 570 37,000  Level FlightAware Transoceanic
01:36AM 46.3106 153.1523 228° Southwest 495 570 37,000  Level FlightAware Transoceanic
01:37AM 46.2247 153.0130 228° Southwest  Level FlightAware Approximate
01:38AM 46.1386 152.8741 228° Southwest  Level FlightAware Approximate
01:39AM 46.1462 152.8877 228° Southwest  Level FlightAware Approximate
01:40AM 46.0593 152.7499 228° Southwest  Level FlightAware Approximate
01:41AM 45.9723 152.6126 228° Southwest  Level FlightAware Approximate
01:42AM 45.8852 152.4758 228° Southwest  Level FlightAware Approximate
01:43AM 45.7979 152.3393 227° Southwest  Level FlightAware Approximate
01:44AM 45.7104 152.2033 227° Southwest  Level FlightAware Approximate
01:45AM 45.6227 152.0677 227° Southwest  Level FlightAware Approximate
01:46AM 45.5351 151.9329 227° Southwest  Level FlightAware Approximate
01:47AM 45.4474 151.7985 227° Southwest  Level FlightAware Approximate
01:48AM 45.3595 151.6646 227° Southwest  Level FlightAware Approximate
01:49AM 45.2715 151.5310 227° Southwest  Level FlightAware Approximate
01:50AM 45.1833 151.3979 227° Southwest  Level FlightAware Approximate
01:51AM 45.0949 151.2651 227° Southwest  Level FlightAware Approximate
01:52AM 45.0064 151.1328 227° Southwest  Level FlightAware Approximate
01:53AM 44.9177 151.0009 227° Southwest  Level FlightAware Approximate
01:54AM 44.8289 150.8694 226° Southwest  Level FlightAware Approximate
01:55AM 44.7399 150.7383 226° Southwest  Level FlightAware Approximate
01:56AM 44.6508 150.6076 226° Southwest  Level FlightAware Approximate
01:57AM 44.5616 150.4772 226° Southwest  Level FlightAware Approximate
01:58AM 44.4723 150.3472 226° Southwest  Level FlightAware Approximate
01:59AM 44.3829 150.2175 226° Southwest  Level FlightAware Approximate
02:00AM 44.2933 150.0882 226° Southwest  Level FlightAware Approximate
02:01AM 44.2035 149.9594 226° Southwest  Level FlightAware Approximate
02:02AM 44.1137 149.8309 226° Southwest  Level FlightAware Approximate
02:03AM 44.0237 149.7028 226° Southwest  Level FlightAware Approximate
02:04AM 43.9335 149.5751 226° Southwest  Level FlightAware Approximate
02:05AM 43.8432 149.4478 226° Southwest  Level FlightAware Approximate
02:06AM 43.7527 149.3208 225° Southwest  Level FlightAware Approximate
02:07AM 43.6622 149.1943 225° Southwest  Level FlightAware Approximate
02:08AM 43.5714 149.0681 225° Southwest  Level FlightAware Approximate
02:08AM 43.5460 149.0330 225° Southwest 460 529 37,000  Level FlightAware
02:09AM 43.4806 148.9424 225° Southwest  Level FlightAware Approximate
02:09AM 43.4590 148.9120 225° Southwest 461 531 37,000  Level FlightAware
02:10AM 43.3960 148.8250 225° Southwest 461 531 37,000  Level FlightAware
02:10AM 43.3260 148.7290 225° Southwest 460 529 37,000  Level FlightAware
02:10AM 43.3100 148.7060 226° Southwest 460 529 37,000  Level FlightAware
02:12AM 43.1960 148.5520 225° Southwest 456 525 37,000  Level FlightAware
02:12AM 43.1270 148.4580 225° Southwest 460 529 37,000  Level FlightAware
02:13AM 43.0660 148.3760 224° Southwest 458 527 37,000  Level FlightAware
02:14AM 43.0060 148.2940 225° Southwest 456 525 37,000  Level FlightAware
02:15AM 42.9390 148.2040 225° Southwest 454 522 37,000  Level FlightAware
02:15AM 42.8730 148.1150 225° Southwest 451 519 37,000  Level FlightAware
02:16AM 42.8130 148.0340 225° Southwest 451 519 37,000  Level FlightAware
02:17AM 42.7530 147.9540 224° Southwest 450 518 37,000  Level FlightAware
02:17AM 42.7010 147.8850 224° Southwest 449 517 37,000  Level FlightAware
02:18AM 42.6350 147.7980 224° Southwest 447 514 37,000  Level FlightAware
02:19AM 42.5740 147.7180 224° Southwest 446 513 37,000  Level FlightAware
02:19AM 42.5230 147.6500 225° Southwest 446 513 37,000  Level FlightAware
02:20AM 42.4640 147.5720 224° Southwest 446 513 37,000  Level FlightAware
02:21AM 42.3970 147.4850 224° Southwest 446 513 37,000  Level FlightAware
02:21AM 42.3380 147.4070 224° Southwest 446 513 37,000  Level FlightAware
02:22AM 42.2710 147.3190 224° Southwest 447 514 37,000  Level FlightAware
02:23AM 42.2120 147.2420 224° Southwest 447 514 37,000  Level FlightAware
02:23AM 42.1520 147.1640 224° Southwest 449 517 37,000  Level FlightAware
02:24AM 42.0580 147.0440 223° Southwest 450 518 37,000  Level FlightAware
02:25AM 41.9910 146.9560 224° Southwest 450 518 37,000  Level FlightAware
02:26AM 41.9310 146.8790 224° Southwest 451 519 37,000  Level FlightAware
02:27AM 41.8630 146.7920 224° Southwest 447 514 37,000  Level FlightAware
02:27AM 41.8020 146.7140 224° Southwest 451 519 37,000  Level FlightAware
02:28AM 41.7330 146.6250 224° Southwest 452 520 37,000  Level FlightAware
02:29AM 41.6720 146.5470 224° Southwest 453 521 37,000  Level FlightAware
02:29AM 41.6180 146.4790 223° Southwest 454 522 37,000  Level FlightAware
02:30AM 41.5480 146.3900 224° Southwest 464 534 37,000  Level FlightAware
02:31AM 41.4860 146.3110 224° Southwest 466 536 37,000  Level FlightAware
02:31AM 41.4270 146.2380 223° Southwest 469 540 37,000  Level FlightAware
02:32AM 41.3640 146.1590 223° Southwest 466 536 37,000  Level FlightAware
02:33AM 41.3050 146.0850 223° Southwest 468 539 37,000  Level FlightAware
02:33AM 41.2290 145.9890 224° Southwest 467 537 37,000  Level FlightAware
02:34AM 41.1660 145.9110 223° Southwest 468 539 37,000  Level FlightAware
02:35AM 41.0970 145.8260 223° Southwest 470 541 37,000  Level FlightAware
02:35AM 41.0430 145.7570 224° Southwest 480 552 37,000  Level FlightAware
02:36AM 40.9620 145.6590 222° Southwest 481 554 37,000  Level FlightAware
02:37AM 40.8940 145.5740 223° Southwest 482 555 37,000  Level FlightAware
02:38AM 40.8250 145.4900 223° Southwest 484 557 37,000  Level FlightAware
02:38AM 40.7560 145.4060 223° Southwest 483 556 37,000  Level FlightAware
02:39AM 40.6970 145.3330 223° Southwest 483 556 37,000  Level FlightAware
02:40AM 40.6410 145.2660 222° Southwest 483 556 37,000  Level FlightAware
02:40AM 40.5570 145.1620 223° Southwest 482 555 37,000  Level FlightAware
02:41AM 40.4880 145.0810 222° Southwest 482 555 37,000  Level FlightAware
02:42AM 40.4040 144.9800 222° Southwest 482 555 37,000  Level FlightAware
02:43AM 40.3260 144.8840 223° Southwest 484 557 37,000  Level FlightAware
02:43AM 40.2710 144.8190 222° Southwest 484 557 37,000  Level FlightAware
02:44AM 40.2020 144.7360 223° Southwest 484 557 37,000  Level FlightAware
02:45AM 40.1510 144.6760 222° Southwest 484 557 37,000  Level FlightAware
02:45AM 40.1000 144.6160 222° Southwest 484 557 37,000  Level FlightAware
02:46AM 40.0320 144.5360 222° Southwest 484 557 37,000  Level FlightAware
02:47AM 39.9800 144.4750 222° Southwest 484 557 37,000  Level FlightAware
02:47AM 39.9290 144.4150 222° Southwest 484 557 37,000  Level FlightAware
02:48AM 39.8610 144.3350 222° Southwest 484 557 37,000  Level FlightAware
02:49AM 39.8100 144.2750 222° Southwest 484 557 37,000  Level FlightAware
02:49AM 39.6500 144.0830 223° Southwest 494 568 37,000  Level FlightAware
02:50AM 39.5810 144.0040 221° Southwest 495 570 37,000  Level FlightAware
02:51AM 39.5040 143.9140 222° Southwest 498 573 37,000  Level FlightAware
02:51AM 39.4360 143.8350 222° Southwest 499 574 37,000  Level FlightAware
02:52AM 39.3750 143.7650 222° Southwest 500 575 37,000  Level FlightAware
02:53AM 39.2980 143.6750 222° Southwest 501 577 37,000  Level FlightAware
02:53AM 39.2300 143.5970 222° Southwest 496 571 37,000  Level FlightAware
02:54AM 39.1510 143.5080 221° Southwest 497 572 37,000  Level FlightAware
02:55AM 39.0800 143.4260 222° Southwest 498 573 37,000  Level FlightAware
02:55AM 39.0120 143.3480 222° Southwest 500 575 37,000  Level FlightAware
02:56AM 38.9270 143.2570 220° Southwest 518 596 37,000  Level FlightAware
02:57AM 38.8350 143.2180 198° South 547 629 37,000  Level FlightAware
02:57AM 38.7460 143.2050 186° South 550 633 37,000  Level FlightAware
02:58AM 38.6340 143.1900 186° South 549 632 37,000  Level FlightAware
02:59AM 38.5330 143.1760 186° South 551 634 37,000  Level FlightAware
03:00AM 38.3200 143.1470 186° South 546 628 37,000  Level FlightAware
03:01AM 38.2210 143.1340 186° South 537 618 37,000  Level FlightAware
03:02AM 38.1090 143.1180 186° South 521 600 37,000  Level FlightAware
03:02AM 38.0120 143.1040 186° South 519 597 37,000  Level FlightAware
03:03AM 37.9160 143.0910 186° South 518 596 37,000  Level FlightAware
03:04AM 37.8060 143.0760 186° South 517 595 37,000  Level FlightAware
03:04AM 37.7100 143.0630 186° South 515 593 37,000  Level FlightAware
03:05AM 37.6010 143.0480 186° South 516 594 37,000  Level FlightAware
03:06AM 37.5060 143.0350 186° South 517 595 37,000  Level FlightAware
03:06AM 37.4190 143.0240 186° South 517 595 37,000  Level FlightAware
03:07AM 37.3130 142.9960 192° South 511 588 37,000  Level FlightAware
03:08AM 37.2240 142.9540 201° Southwest 516 594 37,000  Level FlightAware
03:09AM 37.1370 142.9100 202° Southwest 508 585 37,000  Level FlightAware
03:09AM 37.0360 142.8580 202° Southwest 517 595 37,000  Level FlightAware
03:10AM 36.9350 142.8070 202° Southwest 517 595 37,000  Level FlightAware
03:11AM 36.8460 142.7620 202° Southwest 518 596 37,000  Level FlightAware
03:11AM 36.7800 142.7290 202° Southwest 517 595 37,000  Level FlightAware
03:12AM 36.6800 142.6790 202° Southwest 517 595 37,000  Level FlightAware
03:13AM 36.5910 142.6330 203° Southwest 509 586 37,000 -600 Level FlightAware
03:13AM 36.5070 142.5800 207° Southwest 514 592 36,200 -2,220 Descending FlightAware
03:14AM 36.4230 142.5210 209° Southwest 517 595 34,200 -2,940 Descending FlightAware
03:15AM 36.3290 142.4550 209° Southwest 513 590 32,100 -2,700 Descending FlightAware
03:15AM 36.2570 142.4050 209° Southwest 497 572 30,500 -2,520 Descending FlightAware
03:16AM 36.1690 142.3440 209° Southwest 479 551 28,800 -2,460 Descending FlightAware
03:17AM 36.0860 142.2870 209° Southwest 464 534 27,100 -2,340 Descending FlightAware
03:17AM 36.0170 142.2390 209° Southwest 458 527 25,700 -2,280 Descending FlightAware
03:18AM 35.9530 142.1950 209° Southwest 447 514 24,300 -2,340 Descending FlightAware
03:19AM 35.8710 142.1390 209° Southwest 421 484 22,600 -2,040 Descending FlightAware
03:19AM 35.8130 142.1000 209° Southwest 401 461 21,400 -1,560 Descending FlightAware
03:20AM 35.7640 141.9800 243° Southwest 412 474 20,200 -960 Descending FlightAware
03:21AM 35.7700 141.8980 275° West 411 473 20,100 -240 Descending FlightAware
03:22AM 35.7790 141.7920 276° West 409 471 19,900 -360 Descending FlightAware
03:22AM 35.7870 141.6990 276° West 407 468 19,600 -420 Descending FlightAware
03:23AM 35.7930 141.6210 275° West 406 467 19,400 -960 Descending FlightAware
03:24AM 35.8020 141.5010 275° West 380 437 18,300 -1,740 Descending FlightAware
03:24AM 35.8080 141.4200 275° West 368 423 16,900 -2,280 Descending FlightAware
03:25AM 35.7990 141.3440 262° West 371 427 15,500 -2,340 Descending FlightAware
03:26AM 35.7640 141.2700 240° Southwest 372 428 13,900 -2,220 Descending FlightAware
03:26AM 35.7310 141.2010 240° Southwest 362 417 12,600 -2,040 Descending FlightAware
03:27AM 35.7020 141.1410 239° Southwest 359 413 11,400 -1,620 Descending FlightAware
03:28AM 35.6630 141.0580 240° Southwest 340 391 10,400 -900 Descending FlightAware
03:28AM 35.6320 140.9930 240° Southwest 292 336 10,200 -840 Descending FlightAware
03:29AM 35.6120 140.9520 239° Southwest 290 334 9,500 -1,620 Descending FlightAware
03:29AM 35.5950 140.9160 240° Southwest 289 333 8,800 -1,500 Descending FlightAware
03:30AM 35.5800 140.8860 238° Southwest 287 330 8,400 -1,200 Descending FlightAware
03:30AM 35.5690 140.8520 248° West 276 318 7,900 -1,080 Descending FlightAware
03:31AM 35.5610 140.8060 258° West 266 306 7,400 -1,080 Descending FlightAware
03:31AM 35.5550 140.7690 259° West 260 299 6,900 -1,020 Descending FlightAware
03:31AM 35.5480 140.7320 257° West 249 287 6,600 -960 Descending FlightAware
03:32AM 35.5400 140.6860 258° West 238 274 6,000 -900 Descending FlightAware
03:32AM 35.5340 140.6490 259° West 223 257 5,700 -960 Descending FlightAware
03:33AM 35.5290 140.6190 258° West 216 249 5,200 -1,080 Descending FlightAware
03:33AM 35.5320 140.5880 277° West 197 227 4,800 -1,020 Descending FlightAware
03:34AM 35.5360 140.5620 281° West 186 214 4,300 -720 Descending FlightAware
03:34AM 35.5520 140.5290 301° West 186 214 4,100 -300 Descending FlightAware
03:34AM 35.5600 140.5220 325° Northwest 186 214 4,100 -240 Level FlightAware
03:35AM 35.5730 140.5140 333° Northwest 187 215 4,000 -720 Descending FlightAware
03:35AM 35.5930 140.5000 330° Northwest 168 193 3,600 -900 Descending FlightAware
03:36AM 35.6110 140.4860 328° Northwest 163 188 3,200 -900 Descending FlightAware
03:36AM 35.6300 140.4730 331° Northwest 165 190 2,800 -900 Descending FlightAware
03:37AM 35.6470 140.4600 328° Northwest 165 190 2,400 -900 Descending FlightAware
03:37AM 35.6740 140.4410 330° Northwest 158 182 1,800 -900 Descending FlightAware
03:38AM 35.6920 140.4280 330° Northwest 159 183 1,400 -780 Descending FlightAware
03:38AM 35.7090 140.4160 330° Northwest 151 174 1,100 -720 Descending FlightAware
03:39AM 35.7230 140.4050 327° Northwest 151 174 800 -840 Descending FlightAware
03:39AM 35.7380 140.3950 332° Northwest 154 177 400 -420 Descending FlightAware
03:40AM 35.7530 140.3840 329° Northwest 153 176 400  Level FlightAware
03:42AM 35.7500 140.3833 253° West  Level FlightAware Approximate
03:43AM 35.7647 140.3864 253° West  Level Estimated